ACA34 YBBN-CYVR
Flight info
| Callsign | ACA34 |
|---|---|
| Flight time | N/A |
| Altitude | 31000 |
| Route | GUMKI2/19L GUMKI B578 MEPEM DCT 25S163E/N0497F330 DCT VIRAR A579 CUFFY/N0494F350 A579 CHEEM/N0481F370 A579 CARRP DCT KEOLA DCT ZIGIE A331 ZINNO/N0472F390 DCT 40N140W 46N130W DCT SHARI DCT PEKAA SHARK4 |
| Aircraft | B77L/H-SADE1E2E3GHIJ1J3J5M1P2RWXY/LB1D1 |
Departure
| Time | 2026-05-01 07:44 |
|---|---|
| Airport | Brisbane International Airport (YBBN) |
Arrival
| Time | N/A |
|---|---|
| Airport | Vancouver International Airport (CYVR) |
| Time | Latitude | Longitude | Altitude | Speed | Heading |
|---|---|---|---|---|---|
| 2026-05-01 07:23 | -27.40173 | 153.11247 | 22 ft | 0 kts | 297° |
| 2026-05-01 07:30 | -27.40181 | 153.11262 | 26 ft | 2 kts | 307° |
| 2026-05-01 07:30 | -27.40191 | 153.11276 | 25 ft | 2 kts | 319° |
| 2026-05-01 07:31 | -27.40205 | 153.11287 | 24 ft | 2 kts | 335° |
| 2026-05-01 07:31 | -27.40252 | 153.11289 | 24 ft | 2 kts | 21° |
| 2026-05-01 07:32 | -27.40268 | 153.11280 | 26 ft | 0 kts | 29° |
| 2026-05-01 07:34 | -27.40245 | 153.11295 | 22 ft | 10 kts | 30° |
| 2026-05-01 07:34 | -27.40196 | 153.11377 | 25 ft | 14 kts | 94° |
| 2026-05-01 07:35 | -27.40201 | 153.11483 | 25 ft | 14 kts | 57° |
| 2026-05-01 07:35 | -27.40119 | 153.11548 | 23 ft | 14 kts | 27° |
| 2026-05-01 07:35 | -27.40030 | 153.11599 | 23 ft | 14 kts | 27° |
| 2026-05-01 07:35 | -27.39940 | 153.11651 | 23 ft | 14 kts | 27° |
| 2026-05-01 07:36 | -27.39851 | 153.11703 | 26 ft | 14 kts | 27° |
| 2026-05-01 07:36 | -27.39762 | 153.11755 | 22 ft | 14 kts | 27° |
| 2026-05-01 07:36 | -27.39672 | 153.11806 | 22 ft | 14 kts | 24° |
| 2026-05-01 07:36 | -27.39582 | 153.11856 | 26 ft | 14 kts | 26° |
| 2026-05-01 07:37 | -27.39395 | 153.11962 | 23 ft | 16 kts | 27° |
| 2026-05-01 07:37 | -27.39300 | 153.12017 | 25 ft | 16 kts | 27° |
| 2026-05-01 07:37 | -27.39194 | 153.12078 | 27 ft | 21 kts | 27° |
| 2026-05-01 07:38 | -27.39041 | 153.12166 | 23 ft | 27 kts | 27° |
| 2026-05-01 07:38 | -27.38874 | 153.12259 | 24 ft | 27 kts | 26° |
| 2026-05-01 07:38 | -27.38540 | 153.12450 | 26 ft | 27 kts | 27° |
| 2026-05-01 07:39 | -27.38373 | 153.12546 | 26 ft | 27 kts | 27° |
| 2026-05-01 07:39 | -27.38207 | 153.12643 | 24 ft | 27 kts | 27° |
| 2026-05-01 07:39 | -27.37877 | 153.12830 | 22 ft | 25 kts | 27° |
| 2026-05-01 07:40 | -27.37724 | 153.12919 | 23 ft | 25 kts | 27° |
| 2026-05-01 07:40 | -27.37570 | 153.13007 | 24 ft | 25 kts | 27° |
| 2026-05-01 07:40 | -27.37416 | 153.13094 | 23 ft | 25 kts | 27° |
| 2026-05-01 07:40 | -27.37284 | 153.13183 | 23 ft | 18 kts | 60° |
| 2026-05-01 07:41 | -27.37311 | 153.13317 | 23 ft | 18 kts | 116° |
| 2026-05-01 07:41 | -27.37329 | 153.13357 | 25 ft | 0 kts | 121° |
| 2026-05-01 07:42 | -27.37332 | 153.13361 | 25 ft | 3 kts | 124° |
| 2026-05-01 07:42 | -27.37377 | 153.13411 | 26 ft | 12 kts | 147° |
| 2026-05-01 07:42 | -27.37485 | 153.13416 | 26 ft | 24 kts | 200° |
| 2026-05-01 07:43 | -27.37811 | 153.13235 | 25 ft | 93 kts | 206° |
| 2026-05-01 07:43 | -27.38651 | 153.12764 | 27 ft | 175 kts | 203° |
| 2026-05-01 07:43 | -27.41281 | 153.11237 | 582 ft | 254 kts | 206° |
| 2026-05-01 07:44 | -27.44398 | 153.10051 | 942 ft | 220 kts | 174° |
| 2026-05-01 07:44 | -27.47025 | 153.11077 | 2078 ft | 194 kts | 137° |
| 2026-05-01 07:45 | -27.48083 | 153.12142 | 2233 ft | 214 kts | 141° |
| 2026-05-01 07:45 | -27.49335 | 153.13161 | 2530 ft | 229 kts | 143° |
| 2026-05-01 07:45 | -27.50558 | 153.14334 | 2854 ft | 235 kts | 124° |
| 2026-05-01 07:45 | -27.51496 | 153.15861 | 3216 ft | 241 kts | 135° |
| 2026-05-01 07:46 | -27.52979 | 153.16697 | 3684 ft | 252 kts | 172° |
| 2026-05-01 07:46 | -27.54724 | 153.16362 | 4230 ft | 262 kts | 198° |
| 2026-05-01 07:46 | -27.58101 | 153.14646 | 5229 ft | 273 kts | 204° |
| 2026-05-01 07:47 | -27.59790 | 153.13697 | 5882 ft | 271 kts | 201° |
| 2026-05-01 07:47 | -27.61515 | 153.12815 | 6304 ft | 270 kts | 189° |
| 2026-05-01 07:47 | -27.63353 | 153.12738 | 6800 ft | 265 kts | 162° |
| 2026-05-01 07:47 | -27.64998 | 153.13606 | 7285 ft | 262 kts | 137° |
| 2026-05-01 07:48 | -27.66509 | 153.17156 | 8324 ft | 264 kts | 89° |
| 2026-05-01 07:48 | -27.66091 | 153.19181 | 8817 ft | 271 kts | 66° |
| 2026-05-01 07:48 | -27.64938 | 153.20871 | 9294 ft | 276 kts | 46° |
| 2026-05-01 07:49 | -27.63508 | 153.22364 | 9724 ft | 283 kts | 46° |
| 2026-05-01 07:49 | -27.60544 | 153.25426 | 10445 ft | 303 kts | 46° |
| 2026-05-01 07:49 | -27.58945 | 153.27079 | 10600 ft | 322 kts | 45° |
| 2026-05-01 07:50 | -27.57244 | 153.28841 | 10745 ft | 341 kts | 45° |
| 2026-05-01 07:50 | -27.53585 | 153.32640 | 11316 ft | 370 kts | 45° |
| 2026-05-01 07:50 | -27.51671 | 153.34630 | 11845 ft | 378 kts | 45° |
| 2026-05-01 07:51 | -27.49757 | 153.36622 | 12518 ft | 382 kts | 45° |
| 2026-05-01 07:51 | -27.47793 | 153.38666 | 13232 ft | 386 kts | 45° |
| 2026-05-01 07:51 | -27.45816 | 153.40724 | 13907 ft | 390 kts | 45° |
| 2026-05-01 07:52 | -27.41776 | 153.44928 | 15130 ft | 399 kts | 45° |
| 2026-05-01 07:52 | -27.39724 | 153.47063 | 15754 ft | 403 kts | 45° |
| 2026-05-01 07:52 | -27.37658 | 153.49218 | 16331 ft | 408 kts | 45° |
| 2026-05-01 07:53 | -27.33446 | 153.53598 | 17466 ft | 418 kts | 45° |
| 2026-05-01 07:53 | -27.31293 | 153.55829 | 18010 ft | 422 kts | 45° |
| 2026-05-01 07:53 | -27.29132 | 153.58077 | 18243 ft | 423 kts | 47° |
| 2026-05-01 07:53 | -27.27215 | 153.60574 | 18240 ft | 421 kts | 58° |
| 2026-05-01 07:54 | -27.24600 | 153.66371 | 18611 ft | 421 kts | 74° |
| 2026-05-01 07:55 | -27.21783 | 153.75856 | 20041 ft | 433 kts | 74° |
| 2026-05-01 07:55 | -27.19792 | 153.82355 | 20777 ft | 447 kts | 74° |
| 2026-05-01 07:56 | -27.16282 | 153.92148 | 22125 ft | 461 kts | 68° |
| 2026-05-01 07:56 | -27.13650 | 153.98760 | 23103 ft | 466 kts | 67° |
| 2026-05-01 07:57 | -27.12340 | 154.02071 | 23726 ft | 466 kts | 68° |
| 2026-05-01 07:57 | -27.09705 | 154.08754 | 24594 ft | 470 kts | 67° |
| 2026-05-01 07:58 | -27.07488 | 154.14367 | 25218 ft | 476 kts | 68° |
| 2026-05-01 07:58 | -27.04340 | 154.22335 | 26067 ft | 485 kts | 67° |
| 2026-05-01 07:59 | -27.01586 | 154.29282 | 26811 ft | 492 kts | 67° |
| 2026-05-01 07:59 | -26.99257 | 154.35135 | 27399 ft | 497 kts | 67° |
| 2026-05-01 08:00 | -26.93055 | 154.50634 | 28977 ft | 509 kts | 66° |
| 2026-05-01 08:01 | -26.89167 | 154.60334 | 29862 ft | 516 kts | 66° |
| 2026-05-01 08:01 | -26.87690 | 154.64013 | 30155 ft | 519 kts | 66° |
| 2026-05-01 08:01 | -26.86205 | 154.67708 | 30382 ft | 522 kts | 66° |
| 2026-05-01 08:02 | -26.82724 | 154.76351 | 31067 ft | 523 kts | 66° |
| 2026-05-01 08:03 | -26.78693 | 154.86346 | 31169 ft | 525 kts | 66° |
| 2026-05-01 08:03 | -26.74226 | 154.97390 | 31175 ft | 519 kts | 66° |
| 2026-05-01 08:04 | -26.68215 | 155.12205 | 31175 ft | 527 kts | 65° |
| 2026-05-01 08:05 | -26.63678 | 155.23349 | 31161 ft | 525 kts | 65° |
| 2026-05-01 08:06 | -26.59171 | 155.34394 | 31160 ft | 519 kts | 65° |
| 2026-05-01 08:07 | -26.53167 | 155.49061 | 31165 ft | 520 kts | 65° |
| 2026-05-01 08:08 | -26.48656 | 155.60047 | 31162 ft | 522 kts | 65° |
| 2026-05-01 08:09 | -26.42966 | 155.74989 | 31140 ft | 524 kts | 74° |
| 2026-05-01 08:09 | -26.41458 | 155.82929 | 31151 ft | 523 kts | 80° |
| 2026-05-01 08:10 | -26.38832 | 155.98847 | 31149 ft | 523 kts | 79° |
| 2026-05-01 08:11 | -26.36088 | 156.14764 | 31141 ft | 522 kts | 79° |
| 2026-05-01 08:12 | -26.34030 | 156.26610 | 31143 ft | 521 kts | 79° |
| 2026-05-01 08:13 | -26.31958 | 156.38497 | 31122 ft | 521 kts | 79° |
| 2026-05-01 08:13 | -26.29873 | 156.50404 | 31136 ft | 523 kts | 79° |
| 2026-05-01 08:14 | -26.28481 | 156.58317 | 31135 ft | 524 kts | 79° |
| 2026-05-01 08:14 | -26.27072 | 156.66294 | 31133 ft | 526 kts | 79° |
| 2026-05-01 08:15 | -26.24946 | 156.78289 | 31138 ft | 527 kts | 79° |
| 2026-05-01 08:16 | -26.23521 | 156.86291 | 31131 ft | 527 kts | 79° |
| 2026-05-01 08:16 | -26.22103 | 156.94232 | 31132 ft | 526 kts | 78° |
| 2026-05-01 08:17 | -26.20672 | 157.02219 | 31128 ft | 525 kts | 78° |
| 2026-05-01 08:17 | -26.19241 | 157.10179 | 31122 ft | 524 kts | 78° |
| 2026-05-01 08:18 | -26.17806 | 157.18132 | 31126 ft | 524 kts | 78° |
| 2026-05-01 08:19 | -26.14931 | 157.33989 | 31120 ft | 525 kts | 78° |
| 2026-05-01 08:19 | -26.13476 | 157.41975 | 31121 ft | 527 kts | 78° |
| 2026-05-01 08:20 | -26.12016 | 157.49967 | 31120 ft | 528 kts | 78° |
| 2026-05-01 08:20 | -26.10546 | 157.57979 | 31130 ft | 529 kts | 78° |
| 2026-05-01 08:21 | -26.09083 | 157.65935 | 31120 ft | 529 kts | 78° |
| 2026-05-01 08:21 | -26.07604 | 157.73948 | 31125 ft | 528 kts | 78° |
| 2026-05-01 08:22 | -26.06124 | 157.81940 | 31119 ft | 527 kts | 78° |
| 2026-05-01 08:22 | -26.04642 | 157.89922 | 31123 ft | 527 kts | 77° |
| 2026-05-01 08:23 | -26.03166 | 157.97840 | 31124 ft | 526 kts | 77° |
| 2026-05-01 08:23 | -26.01676 | 158.05812 | 31114 ft | 526 kts | 77° |
| 2026-05-01 08:24 | -26.00184 | 158.13769 | 31123 ft | 526 kts | 77° |
| 2026-05-01 08:24 | -25.98687 | 158.21722 | 31119 ft | 526 kts | 77° |
| 2026-05-01 08:25 | -25.97196 | 158.29622 | 31110 ft | 526 kts | 77° |
| 2026-05-01 08:25 | -25.95691 | 158.37573 | 31113 ft | 525 kts | 77° |
| 2026-05-01 08:26 | -25.94183 | 158.45513 | 31116 ft | 525 kts | 77° |
| 2026-05-01 08:26 | -25.92671 | 158.53449 | 31110 ft | 525 kts | 77° |
| 2026-05-01 08:27 | -25.91164 | 158.61333 | 31109 ft | 525 kts | 77° |
| 2026-05-01 08:27 | -25.89643 | 158.69267 | 31114 ft | 525 kts | 77° |
| 2026-05-01 08:28 | -25.88119 | 158.77193 | 31111 ft | 525 kts | 77° |
| 2026-05-01 08:28 | -25.86589 | 158.85128 | 31096 ft | 526 kts | 77° |
| 2026-05-01 08:29 | -25.85052 | 158.93071 | 31117 ft | 527 kts | 77° |
| 2026-05-01 08:29 | -25.83516 | 159.00982 | 31108 ft | 529 kts | 77° |
| 2026-05-01 08:30 | -25.81961 | 159.08970 | 31112 ft | 530 kts | 77° |
| 2026-05-01 08:30 | -25.80399 | 159.16973 | 31108 ft | 531 kts | 77° |
| 2026-05-01 08:31 | -25.78832 | 159.24976 | 31106 ft | 531 kts | 76° |
| 2026-05-01 08:31 | -25.77271 | 159.32920 | 31102 ft | 530 kts | 76° |
| 2026-05-01 08:32 | -25.75697 | 159.40906 | 31100 ft | 530 kts | 76° |
| 2026-05-01 08:32 | -25.74121 | 159.48880 | 31109 ft | 529 kts | 76° |
| 2026-05-01 08:33 | -25.72543 | 159.56839 | 31117 ft | 528 kts | 76° |
| 2026-05-01 08:33 | -25.70974 | 159.64732 | 31109 ft | 527 kts | 76° |
| 2026-05-01 08:34 | -25.69391 | 159.72674 | 31095 ft | 528 kts | 76° |
| 2026-05-01 08:34 | -25.67793 | 159.80654 | 31111 ft | 532 kts | 76° |
| 2026-05-01 08:35 | -25.66180 | 159.88689 | 31115 ft | 535 kts | 76° |
| 2026-05-01 08:35 | -25.64558 | 159.96753 | 31088 ft | 537 kts | 76° |
| 2026-05-01 08:36 | -25.62940 | 160.04771 | 31096 ft | 537 kts | 76° |
| 2026-05-01 08:36 | -25.61309 | 160.12832 | 31097 ft | 535 kts | 76° |
| 2026-05-01 08:37 | -25.59679 | 160.20860 | 31094 ft | 533 kts | 76° |
| 2026-05-01 08:37 | -25.58059 | 160.28812 | 31090 ft | 532 kts | 76° |
| 2026-05-01 08:38 | -25.56429 | 160.36793 | 31092 ft | 531 kts | 76° |
| 2026-05-01 08:38 | -25.54795 | 160.44771 | 31089 ft | 531 kts | 76° |
| 2026-05-01 08:39 | -25.53159 | 160.52735 | 31076 ft | 531 kts | 76° |
| 2026-05-01 08:39 | -25.51502 | 160.60775 | 31101 ft | 540 kts | 75° |
| 2026-05-01 08:40 | -25.48992 | 160.72910 | 31085 ft | 541 kts | 75° |
| 2026-05-01 08:40 | -25.47311 | 160.81012 | 31086 ft | 540 kts | 75° |
| 2026-05-01 08:41 | -25.45628 | 160.89098 | 31087 ft | 539 kts | 75° |
| 2026-05-01 08:41 | -25.43955 | 160.97114 | 31087 ft | 538 kts | 75° |
| 2026-05-01 08:42 | -25.42268 | 161.05170 | 31084 ft | 537 kts | 75° |
| 2026-05-01 08:42 | -25.40579 | 161.13217 | 31084 ft | 537 kts | 75° |
| 2026-05-01 08:43 | -25.38884 | 161.21264 | 31085 ft | 537 kts | 75° |
| 2026-05-01 08:43 | -25.37187 | 161.29301 | 31088 ft | 537 kts | 75° |
| 2026-05-01 08:44 | -25.35496 | 161.37286 | 31083 ft | 537 kts | 75° |
| 2026-05-01 08:44 | -25.33788 | 161.45327 | 31088 ft | 539 kts | 75° |
| 2026-05-01 08:45 | -25.32064 | 161.53420 | 31091 ft | 542 kts | 75° |
| 2026-05-01 08:45 | -25.30328 | 161.61549 | 31093 ft | 545 kts | 75° |
| 2026-05-01 08:46 | -25.28593 | 161.69650 | 31085 ft | 546 kts | 75° |
| 2026-05-01 08:46 | -25.26842 | 161.77803 | 31079 ft | 545 kts | 75° |
| 2026-05-01 08:47 | -25.25089 | 161.85943 | 31078 ft | 544 kts | 75° |
| 2026-05-01 08:47 | -25.23337 | 161.94055 | 31079 ft | 542 kts | 75° |
| 2026-05-01 08:48 | -25.21597 | 162.02086 | 31081 ft | 541 kts | 75° |
| 2026-05-01 08:48 | -25.19844 | 162.10156 | 31082 ft | 540 kts | 75° |
| 2026-05-01 08:49 | -25.18085 | 162.18228 | 31079 ft | 540 kts | 75° |
| 2026-05-01 08:49 | -25.16323 | 162.26295 | 31056 ft | 541 kts | 75° |
| 2026-05-01 08:50 | -25.14553 | 162.34377 | 31083 ft | 543 kts | 75° |
| 2026-05-01 08:50 | -25.12782 | 162.42438 | 31094 ft | 546 kts | 75° |
| 2026-05-01 08:51 | -25.10980 | 162.50617 | 31083 ft | 549 kts | 75° |
| 2026-05-01 08:51 | -25.10659 | 162.52074 | 31083 ft | 549 kts | 75° |
| 2026-05-01 08:52 | -25.08849 | 162.60266 | 31082 ft | 550 kts | 75° |
| 2026-05-01 08:52 | -25.07047 | 162.68399 | 31079 ft | 549 kts | 75° |
| 2026-05-01 08:53 | -25.05234 | 162.76563 | 31076 ft | 547 kts | 75° |
| 2026-05-01 08:53 | -25.03424 | 162.84690 | 31072 ft | 545 kts | 74° |
| 2026-05-01 08:54 | -25.01615 | 162.92788 | 31071 ft | 543 kts | 74° |
| 2026-05-01 08:54 | -25.00047 | 163.00929 | 31073 ft | 543 kts | 81° |
| 2026-05-01 08:55 | -24.99629 | 163.09187 | 31082 ft | 543 kts | 88° |
| 2026-05-01 08:55 | -24.99468 | 163.17508 | 31075 ft | 543 kts | 88° |
| 2026-05-01 08:56 | -24.99262 | 163.25832 | 31077 ft | 543 kts | 88° |
| 2026-05-01 08:56 | -24.99017 | 163.34161 | 31070 ft | 543 kts | 88° |
| 2026-05-01 08:57 | -24.98761 | 163.42429 | 31072 ft | 543 kts | 88° |
| 2026-05-01 08:57 | -24.98500 | 163.50749 | 31073 ft | 543 kts | 88° |
| 2026-05-01 08:58 | -24.98238 | 163.59072 | 31077 ft | 543 kts | 88° |
| 2026-05-01 08:58 | -24.97972 | 163.67396 | 31082 ft | 543 kts | 88° |
| 2026-05-01 08:59 | -24.97703 | 163.75657 | 31075 ft | 543 kts | 88° |
| 2026-05-01 08:59 | -24.97429 | 163.83956 | 31075 ft | 542 kts | 88° |
| 2026-05-01 09:00 | -24.97149 | 163.92247 | 31076 ft | 541 kts | 87° |
| 2026-05-01 09:00 | -24.96866 | 164.00532 | 31078 ft | 541 kts | 87° |
| 2026-05-01 09:01 | -24.96578 | 164.08811 | 31078 ft | 540 kts | 87° |
| 2026-05-01 09:01 | -24.96288 | 164.17026 | 31075 ft | 540 kts | 87° |
| 2026-05-01 09:02 | -24.95991 | 164.25293 | 31076 ft | 540 kts | 87° |
| 2026-05-01 09:02 | -24.95690 | 164.33566 | 31076 ft | 540 kts | 87° |
| 2026-05-01 09:03 | -24.95384 | 164.41834 | 31078 ft | 540 kts | 87° |
| 2026-05-01 09:03 | -24.95076 | 164.50047 | 31076 ft | 540 kts | 87° |
| 2026-05-01 09:04 | -24.94761 | 164.58314 | 31076 ft | 540 kts | 87° |
| 2026-05-01 09:04 | -24.94440 | 164.66619 | 31310 ft | 545 kts | 87° |
| 2026-05-01 09:05 | -24.94277 | 164.70788 | 31600 ft | 546 kts | 87° |
| 2026-05-01 09:05 | -24.94113 | 164.74968 | 31898 ft | 546 kts | 86° |
| 2026-05-01 09:05 | -24.93947 | 164.79151 | 32177 ft | 547 kts | 86° |
| 2026-05-01 09:05 | -24.93780 | 164.83341 | 32417 ft | 549 kts | 86° |
| 2026-05-01 09:06 | -24.93613 | 164.87495 | 32637 ft | 551 kts | 86° |
| 2026-05-01 09:06 | -24.93442 | 164.91709 | 32872 ft | 552 kts | 86° |
| 2026-05-01 09:06 | -24.93270 | 164.95942 | 33009 ft | 554 kts | 86° |
| 2026-05-01 09:06 | -24.93095 | 165.00193 | 33052 ft | 556 kts | 86° |
| 2026-05-01 09:07 | -24.92743 | 165.08686 | 33070 ft | 554 kts | 86° |
| 2026-05-01 09:07 | -24.92389 | 165.17125 | 33076 ft | 550 kts | 86° |
| 2026-05-01 09:08 | -24.92032 | 165.25520 | 33068 ft | 547 kts | 86° |
| 2026-05-01 09:08 | -24.91673 | 165.33832 | 33077 ft | 547 kts | 86° |
| 2026-05-01 09:09 | -24.91307 | 165.42209 | 33056 ft | 550 kts | 86° |
| 2026-05-01 09:09 | -24.90930 | 165.50698 | 33088 ft | 559 kts | 86° |
| 2026-05-01 09:10 | -24.90546 | 165.59263 | 33073 ft | 560 kts | 86° |
| 2026-05-01 09:10 | -24.90160 | 165.67773 | 33076 ft | 560 kts | 86° |
| 2026-05-01 09:11 | -24.89767 | 165.76326 | 33075 ft | 559 kts | 86° |
| 2026-05-01 09:11 | -24.89369 | 165.84865 | 33072 ft | 558 kts | 86° |
| 2026-05-01 09:12 | -24.88968 | 165.93388 | 33076 ft | 557 kts | 86° |
| 2026-05-01 09:12 | -24.88564 | 166.01841 | 33075 ft | 556 kts | 86° |
| 2026-05-01 09:13 | -24.88154 | 166.10341 | 33076 ft | 556 kts | 86° |
| 2026-05-01 09:13 | -24.87739 | 166.18832 | 33083 ft | 555 kts | 86° |
| 2026-05-01 09:14 | -24.87320 | 166.27320 | 33075 ft | 555 kts | 86° |
| 2026-05-01 09:14 | -24.86899 | 166.35751 | 33076 ft | 555 kts | 86° |
| 2026-05-01 09:15 | -24.86470 | 166.44229 | 33077 ft | 555 kts | 86° |
| 2026-05-01 09:15 | -24.86037 | 166.52707 | 33080 ft | 555 kts | 86° |
| 2026-05-01 09:16 | -24.85599 | 166.61190 | 33076 ft | 555 kts | 86° |
| 2026-05-01 09:17 | -24.84936 | 166.73846 | 33076 ft | 555 kts | 85° |
| 2026-05-01 09:17 | -24.84259 | 166.86553 | 33077 ft | 554 kts | 85° |
| 2026-05-01 09:18 | -24.83572 | 166.99263 | 33077 ft | 554 kts | 85° |
| 2026-05-01 09:19 | -24.82877 | 167.11917 | 33073 ft | 554 kts | 85° |
| 2026-05-01 09:20 | -24.82168 | 167.24616 | 33083 ft | 554 kts | 85° |
| 2026-05-01 09:21 | -24.81208 | 167.41534 | 33071 ft | 553 kts | 85° |
| 2026-05-01 09:21 | -24.80480 | 167.54140 | 33052 ft | 552 kts | 85° |
| 2026-05-01 09:22 | -24.79137 | 167.70977 | 33068 ft | 551 kts | 72° |
| 2026-05-01 09:23 | -24.74193 | 167.82122 | 33081 ft | 542 kts | 47° |
| 2026-05-01 09:24 | -24.67281 | 167.92044 | 33082 ft | 547 kts | 47° |
| 2026-05-01 09:25 | -24.58157 | 168.05440 | 33070 ft | 546 kts | 48° |
| 2026-05-01 09:26 | -24.51413 | 168.15406 | 33063 ft | 542 kts | 48° |
| 2026-05-01 09:26 | -24.44668 | 168.25324 | 33076 ft | 540 kts | 47° |
| 2026-05-01 09:27 | -24.37946 | 168.35184 | 33074 ft | 541 kts | 47° |
| 2026-05-01 09:28 | -24.33433 | 168.41796 | 33084 ft | 542 kts | 47° |
| 2026-05-01 09:28 | -24.28910 | 168.48414 | 33079 ft | 543 kts | 47° |
| 2026-05-01 09:29 | -24.22096 | 168.58368 | 33079 ft | 545 kts | 47° |
| 2026-05-01 09:30 | -24.15295 | 168.68284 | 33077 ft | 546 kts | 47° |
| 2026-05-01 09:30 | -24.08446 | 168.78248 | 33074 ft | 546 kts | 47° |
| 2026-05-01 09:31 | -24.03880 | 168.84881 | 33073 ft | 546 kts | 47° |
| 2026-05-01 09:32 | -23.97051 | 168.94784 | 33045 ft | 546 kts | 47° |
| 2026-05-01 09:32 | -23.90189 | 169.04714 | 33070 ft | 546 kts | 47° |
| 2026-05-01 09:33 | -23.85606 | 169.11335 | 33068 ft | 546 kts | 47° |
| 2026-05-01 09:34 | -23.78751 | 169.21222 | 33070 ft | 547 kts | 47° |
| 2026-05-01 09:34 | -23.71850 | 169.31157 | 33066 ft | 548 kts | 47° |
| 2026-05-01 09:35 | -23.64945 | 169.41079 | 33066 ft | 547 kts | 46° |
| 2026-05-01 09:36 | -23.60362 | 169.47650 | 33065 ft | 548 kts | 46° |
| 2026-05-01 09:36 | -23.55749 | 169.54259 | 33065 ft | 548 kts | 46° |
| 2026-05-01 09:37 | -23.51125 | 169.60874 | 33065 ft | 548 kts | 46° |
| 2026-05-01 09:37 | -23.44187 | 169.70783 | 33064 ft | 549 kts | 46° |
| 2026-05-01 09:38 | -23.37273 | 169.80640 | 33054 ft | 548 kts | 46° |
| 2026-05-01 09:39 | -23.30322 | 169.90529 | 33059 ft | 549 kts | 46° |
| 2026-05-01 09:39 | -23.25679 | 169.97124 | 33061 ft | 549 kts | 46° |
| 2026-05-01 09:40 | -23.18742 | 170.06961 | 33063 ft | 549 kts | 46° |
| 2026-05-01 09:41 | -23.14089 | 170.13549 | 33059 ft | 550 kts | 46° |
| 2026-05-01 09:41 | -23.07101 | 170.23429 | 33064 ft | 550 kts | 46° |
| 2026-05-01 09:42 | -23.02439 | 170.30008 | 33059 ft | 550 kts | 46° |
| 2026-05-01 09:43 | -22.93134 | 170.43115 | 33057 ft | 550 kts | 46° |
| 2026-05-01 09:43 | -22.88458 | 170.49690 | 33062 ft | 550 kts | 46° |
| 2026-05-01 09:44 | -22.81476 | 170.59492 | 33033 ft | 550 kts | 46° |
| 2026-05-01 09:45 | -22.76799 | 170.66048 | 33057 ft | 550 kts | 46° |
| 2026-05-01 09:45 | -22.69779 | 170.75870 | 33055 ft | 550 kts | 46° |
| 2026-05-01 09:46 | -22.65097 | 170.82412 | 33052 ft | 550 kts | 46° |
| 2026-05-01 09:46 | -22.60409 | 170.88954 | 33053 ft | 550 kts | 46° |
| 2026-05-01 09:47 | -22.55747 | 170.95452 | 33057 ft | 550 kts | 46° |
| 2026-05-01 09:47 | -22.51050 | 171.01990 | 33045 ft | 550 kts | 45° |
| 2026-05-01 09:48 | -22.46354 | 171.08520 | 33050 ft | 550 kts | 45° |
| 2026-05-01 09:48 | -22.41657 | 171.15041 | 33057 ft | 550 kts | 45° |
| 2026-05-01 09:49 | -22.36951 | 171.21568 | 33056 ft | 550 kts | 45° |
| 2026-05-01 09:49 | -22.32273 | 171.28048 | 33050 ft | 551 kts | 45° |
| 2026-05-01 09:50 | -22.27561 | 171.34568 | 33050 ft | 551 kts | 45° |
| 2026-05-01 09:50 | -22.22844 | 171.41086 | 33019 ft | 551 kts | 45° |
| 2026-05-01 09:51 | -22.18162 | 171.47549 | 33045 ft | 550 kts | 45° |
| 2026-05-01 09:51 | -22.13444 | 171.54054 | 33053 ft | 550 kts | 45° |
| 2026-05-01 09:52 | -22.08730 | 171.60544 | 33046 ft | 550 kts | 45° |
| 2026-05-01 09:52 | -22.04009 | 171.67030 | 33050 ft | 550 kts | 45° |
| 2026-05-01 09:53 | -21.99313 | 171.73473 | 33056 ft | 550 kts | 45° |
| 2026-05-01 09:53 | -21.94581 | 171.79962 | 33043 ft | 550 kts | 45° |
| 2026-05-01 09:54 | -21.89852 | 171.86442 | 33049 ft | 550 kts | 45° |
| 2026-05-01 09:54 | -21.85121 | 171.92915 | 33042 ft | 550 kts | 45° |
| 2026-05-01 09:55 | -21.80388 | 171.99383 | 33048 ft | 550 kts | 45° |
| 2026-05-01 09:55 | -21.75681 | 172.05806 | 33051 ft | 550 kts | 45° |
| 2026-05-01 09:56 | -21.70938 | 172.12273 | 33043 ft | 550 kts | 45° |
| 2026-05-01 09:56 | -21.66198 | 172.18728 | 33043 ft | 550 kts | 45° |
| 2026-05-01 09:57 | -21.61449 | 172.25186 | 33030 ft | 550 kts | 45° |
| 2026-05-01 09:57 | -21.56735 | 172.31592 | 33032 ft | 549 kts | 45° |
| 2026-05-01 09:58 | -21.51997 | 172.38021 | 33039 ft | 549 kts | 45° |
| 2026-05-01 09:58 | -21.47255 | 172.44447 | 33038 ft | 549 kts | 45° |
| 2026-05-01 09:59 | -21.42506 | 172.50875 | 33040 ft | 549 kts | 45° |
| 2026-05-01 09:59 | -21.37792 | 172.57249 | 33043 ft | 549 kts | 45° |
| 2026-05-01 10:00 | -21.33039 | 172.63668 | 33044 ft | 549 kts | 45° |
| 2026-05-01 10:00 | -21.28283 | 172.70084 | 33042 ft | 549 kts | 45° |
| 2026-05-01 10:01 | -21.23523 | 172.76497 | 33037 ft | 550 kts | 45° |
| 2026-05-01 10:01 | -21.18793 | 172.82864 | 33033 ft | 550 kts | 45° |
| 2026-05-01 10:02 | -21.14028 | 172.89271 | 33039 ft | 550 kts | 45° |
| 2026-05-01 10:02 | -21.09259 | 172.95674 | 33037 ft | 550 kts | 45° |
| 2026-05-01 10:03 | -21.04489 | 173.02072 | 33034 ft | 550 kts | 45° |
| 2026-05-01 10:03 | -20.99750 | 173.08422 | 33006 ft | 549 kts | 44° |
| 2026-05-01 10:04 | -20.94983 | 173.14801 | 33032 ft | 549 kts | 44° |
| 2026-05-01 10:04 | -20.90215 | 173.21174 | 33030 ft | 548 kts | 44° |
| 2026-05-01 10:05 | -20.85444 | 173.27544 | 33031 ft | 548 kts | 44° |
| 2026-05-01 10:05 | -20.80710 | 173.33859 | 33029 ft | 548 kts | 44° |
| 2026-05-01 10:06 | -20.75934 | 173.40221 | 33029 ft | 548 kts | 44° |
| 2026-05-01 10:06 | -20.71161 | 173.46573 | 33028 ft | 548 kts | 44° |
| 2026-05-01 10:07 | -20.66381 | 173.52927 | 33014 ft | 548 kts | 45° |
| 2026-05-01 10:07 | -20.61609 | 173.59262 | 33019 ft | 548 kts | 45° |
| 2026-05-01 10:08 | -20.54469 | 173.68729 | 33028 ft | 548 kts | 45° |
| 2026-05-01 10:09 | -20.49682 | 173.75067 | 33026 ft | 549 kts | 45° |
| 2026-05-01 10:09 | -20.44891 | 173.81404 | 33029 ft | 549 kts | 45° |
| 2026-05-01 10:10 | -20.40098 | 173.87737 | 33020 ft | 549 kts | 44° |
| 2026-05-01 10:10 | -20.32934 | 173.97189 | 33019 ft | 548 kts | 45° |
| 2026-05-01 10:11 | -20.28141 | 174.03505 | 33023 ft | 548 kts | 45° |
| 2026-05-01 10:11 | -20.23346 | 174.09816 | 33018 ft | 548 kts | 45° |
| 2026-05-01 10:12 | -20.19362 | 174.15055 | 33019 ft | 548 kts | 45° |
| 2026-05-01 10:13 | -20.11388 | 174.25525 | 33018 ft | 548 kts | 45° |
| 2026-05-01 10:13 | -20.06592 | 174.31812 | 33016 ft | 547 kts | 45° |
| 2026-05-01 10:14 | -19.99400 | 174.41229 | 33017 ft | 546 kts | 45° |
| 2026-05-01 10:14 | -19.94652 | 174.47439 | 33014 ft | 545 kts | 45° |
| 2026-05-01 10:15 | -19.89871 | 174.53684 | 33017 ft | 544 kts | 45° |
| 2026-05-01 10:15 | -19.85085 | 174.59929 | 33012 ft | 544 kts | 45° |
| 2026-05-01 10:16 | -19.80310 | 174.66153 | 33014 ft | 544 kts | 45° |
| 2026-05-01 10:17 | -19.73169 | 174.75449 | 33013 ft | 544 kts | 45° |
| 2026-05-01 10:17 | -19.66003 | 174.84764 | 33008 ft | 543 kts | 45° |
| 2026-05-01 10:18 | -19.58829 | 174.94074 | 33007 ft | 543 kts | 45° |
| 2026-05-01 10:19 | -19.54075 | 175.00236 | 33001 ft | 543 kts | 45° |
| 2026-05-01 10:19 | -19.49287 | 175.06435 | 33005 ft | 543 kts | 45° |
| 2026-05-01 10:20 | -19.42106 | 175.15721 | 33001 ft | 543 kts | 45° |
| 2026-05-01 10:20 | -19.37313 | 175.21912 | 32983 ft | 543 kts | 45° |
| 2026-05-01 10:21 | -19.30178 | 175.31118 | 33002 ft | 542 kts | 45° |
| 2026-05-01 10:22 | -19.22992 | 175.40365 | 32992 ft | 542 kts | 45° |
| 2026-05-01 10:23 | -19.15804 | 175.49589 | 32999 ft | 542 kts | 45° |
| 2026-05-01 10:23 | -19.08642 | 175.58772 | 33001 ft | 541 kts | 45° |
| 2026-05-01 10:24 | -18.99064 | 175.71034 | 32992 ft | 541 kts | 45° |
| 2026-05-01 10:25 | -18.89511 | 175.83238 | 32997 ft | 541 kts | 45° |
| 2026-05-01 10:26 | -18.84709 | 175.89364 | 32993 ft | 541 kts | 45° |
| 2026-05-01 10:27 | -18.75106 | 176.01600 | 32992 ft | 541 kts | 45° |
| 2026-05-01 10:28 | -18.67936 | 176.10717 | 32987 ft | 540 kts | 45° |
| 2026-05-01 10:28 | -18.60746 | 176.19847 | 33008 ft | 539 kts | 45° |
| 2026-05-01 10:29 | -18.54371 | 176.27935 | 32985 ft | 539 kts | 45° |
| 2026-05-01 10:30 | -18.44018 | 176.41047 | 32988 ft | 538 kts | 45° |
| 2026-05-01 10:31 | -18.35253 | 176.52127 | 32978 ft | 537 kts | 45° |
| 2026-05-01 10:32 | -18.28069 | 176.61194 | 32981 ft | 537 kts | 45° |
| 2026-05-01 10:33 | -18.18515 | 176.73233 | 32980 ft | 538 kts | 45° |
| 2026-05-01 10:34 | -18.11316 | 176.82292 | 32974 ft | 538 kts | 45° |
| 2026-05-01 10:34 | -18.06512 | 176.88324 | 32973 ft | 538 kts | 45° |
| 2026-05-01 10:35 | -17.99294 | 176.97372 | 32962 ft | 538 kts | 45° |
| 2026-05-01 10:35 | -17.94517 | 177.03358 | 32967 ft | 538 kts | 45° |
| 2026-05-01 10:36 | -17.87305 | 177.12383 | 32972 ft | 538 kts | 45° |
| 2026-05-01 10:37 | -17.82488 | 177.18404 | 32969 ft | 538 kts | 45° |
| 2026-05-01 10:37 | -17.75262 | 177.27427 | 32970 ft | 538 kts | 45° |
| 2026-05-01 10:38 | -17.70484 | 177.33389 | 32962 ft | 537 kts | 45° |
| 2026-05-01 10:38 | -17.65407 | 177.39075 | 32963 ft | 529 kts | 36° |
| 2026-05-01 10:39 | -17.59594 | 177.43685 | 32969 ft | 520 kts | 26° |
| 2026-05-01 10:39 | -17.53501 | 177.47663 | 32970 ft | 519 kts | 26° |
| 2026-05-01 10:40 | -17.47388 | 177.51690 | 32973 ft | 520 kts | 26° |
| 2026-05-01 10:40 | -17.41280 | 177.55759 | 32962 ft | 520 kts | 27° |
| 2026-05-01 10:41 | -17.35175 | 177.59835 | 32963 ft | 520 kts | 27° |
| 2026-05-01 10:42 | -17.26036 | 177.65925 | 32961 ft | 519 kts | 27° |
| 2026-05-01 10:42 | -17.19994 | 177.69945 | 32948 ft | 518 kts | 27° |
| 2026-05-01 10:43 | -17.13921 | 177.73983 | 32961 ft | 517 kts | 27° |
| 2026-05-01 10:43 | -17.07860 | 177.78019 | 32960 ft | 516 kts | 27° |
| 2026-05-01 10:44 | -17.01845 | 177.82028 | 32951 ft | 515 kts | 28° |
| 2026-05-01 10:44 | -16.95812 | 177.86047 | 32950 ft | 514 kts | 28° |
| 2026-05-01 10:45 | -16.89789 | 177.90055 | 32951 ft | 512 kts | 28° |
| 2026-05-01 10:45 | -16.83781 | 177.94049 | 32950 ft | 512 kts | 28° |
| 2026-05-01 10:46 | -16.77779 | 177.98036 | 32953 ft | 511 kts | 28° |
| 2026-05-01 10:46 | -16.71818 | 178.01992 | 32948 ft | 511 kts | 28° |
| 2026-05-01 10:47 | -16.65815 | 178.05973 | 32945 ft | 511 kts | 28° |
| 2026-05-01 10:47 | -16.59815 | 178.09951 | 32947 ft | 511 kts | 28° |
| 2026-05-01 10:48 | -16.53818 | 178.13923 | 32946 ft | 511 kts | 28° |
| 2026-05-01 10:48 | -16.47856 | 178.17869 | 32942 ft | 511 kts | 28° |
| 2026-05-01 10:49 | -16.41853 | 178.21839 | 32945 ft | 511 kts | 28° |
| 2026-05-01 10:49 | -16.35852 | 178.25805 | 32939 ft | 511 kts | 28° |
| 2026-05-01 10:50 | -16.29847 | 178.29771 | 32940 ft | 510 kts | 28° |
| 2026-05-01 10:50 | -16.23898 | 178.33697 | 32939 ft | 510 kts | 28° |
| 2026-05-01 10:51 | -16.17899 | 178.37626 | 32937 ft | 509 kts | 28° |
| 2026-05-01 10:51 | -16.11906 | 178.41532 | 32936 ft | 508 kts | 28° |
| 2026-05-01 10:52 | -16.05913 | 178.45439 | 32942 ft | 508 kts | 28° |
| 2026-05-01 10:52 | -15.99960 | 178.49321 | 32940 ft | 508 kts | 28° |
| 2026-05-01 10:53 | -15.93970 | 178.53225 | 32936 ft | 508 kts | 28° |
| 2026-05-01 10:53 | -15.87978 | 178.57128 | 32934 ft | 508 kts | 28° |
| 2026-05-01 10:54 | -15.81983 | 178.61030 | 32935 ft | 508 kts | 28° |
| 2026-05-01 10:54 | -15.75990 | 178.64928 | 32937 ft | 508 kts | 28° |
| 2026-05-01 10:55 | -15.70035 | 178.68798 | 32937 ft | 509 kts | 28° |
| 2026-05-01 10:55 | -15.64033 | 178.72697 | 32934 ft | 509 kts | 28° |
| 2026-05-01 10:56 | -15.58038 | 178.76587 | 32929 ft | 508 kts | 28° |
| 2026-05-01 10:56 | -15.52049 | 178.80473 | 32931 ft | 507 kts | 28° |
| 2026-05-01 10:57 | -15.46109 | 178.84323 | 32932 ft | 507 kts | 28° |
| 2026-05-01 10:57 | -15.40125 | 178.88199 | 32927 ft | 507 kts | 28° |
| 2026-05-01 10:58 | -15.34148 | 178.92068 | 32923 ft | 507 kts | 28° |
| 2026-05-01 10:58 | -15.28169 | 178.95936 | 32918 ft | 507 kts | 28° |
| 2026-05-01 10:59 | -15.22197 | 178.99805 | 32921 ft | 506 kts | 28° |
| 2026-05-01 10:59 | -15.16278 | 179.03649 | 32924 ft | 506 kts | 28° |
| 2026-05-01 11:00 | -15.10315 | 179.07520 | 32927 ft | 506 kts | 28° |
| 2026-05-01 11:00 | -15.04358 | 179.11384 | 32925 ft | 505 kts | 28° |
| 2026-05-01 11:01 | -14.98398 | 179.15246 | 32927 ft | 505 kts | 28° |
| 2026-05-01 11:01 | -14.92482 | 179.19077 | 32927 ft | 505 kts | 28° |
| 2026-05-01 11:02 | -14.86524 | 179.22932 | 32926 ft | 505 kts | 28° |
| 2026-05-01 11:02 | -14.80560 | 179.26789 | 32923 ft | 506 kts | 28° |
| 2026-05-01 11:03 | -14.74601 | 179.30640 | 32919 ft | 506 kts | 28° |
| 2026-05-01 11:03 | -14.68665 | 179.34474 | 32922 ft | 506 kts | 28° |
| 2026-05-01 11:04 | -14.62691 | 179.38330 | 32924 ft | 506 kts | 28° |
| 2026-05-01 11:04 | -14.56711 | 179.42188 | 32921 ft | 507 kts | 28° |
| 2026-05-01 11:05 | -14.50907 | 179.45929 | 32920 ft | 507 kts | 28° |
| 2026-05-01 11:05 | -14.44967 | 179.49755 | 32918 ft | 507 kts | 28° |
| 2026-05-01 11:06 | -14.38979 | 179.53610 | 32917 ft | 507 kts | 28° |
| 2026-05-01 11:06 | -14.32999 | 179.57458 | 32915 ft | 507 kts | 28° |
| 2026-05-01 11:07 | -14.24029 | 179.63225 | 32913 ft | 507 kts | 28° |
| 2026-05-01 11:07 | -14.18409 | 179.66835 | 32914 ft | 507 kts | 28° |
| 2026-05-01 11:08 | -14.12422 | 179.70679 | 32915 ft | 507 kts | 28° |
| 2026-05-01 11:09 | -14.03437 | 179.76442 | 32915 ft | 507 kts | 28° |
| 2026-05-01 11:09 | -13.97441 | 179.80285 | 32912 ft | 508 kts | 28° |
| 2026-05-01 11:10 | -13.88492 | 179.86017 | 32910 ft | 508 kts | 28° |
| 2026-05-01 11:10 | -13.82493 | 179.89857 | 32907 ft | 507 kts | 29° |
| 2026-05-01 11:11 | -13.76507 | 179.93686 | 32909 ft | 506 kts | 29° |
| 2026-05-01 11:11 | -13.70566 | 179.97483 | 32909 ft | 505 kts | 29° |
| 2026-05-01 11:12 | -13.64600 | -179.98705 | 32911 ft | 505 kts | 29° |
| 2026-05-01 11:12 | -13.58630 | -179.94893 | 32904 ft | 505 kts | 29° |
| 2026-05-01 11:13 | -13.52665 | -179.91088 | 32908 ft | 505 kts | 29° |
| 2026-05-01 11:13 | -13.46696 | -179.87282 | 32904 ft | 505 kts | 29° |
| 2026-05-01 11:14 | -13.40770 | -179.83506 | 32910 ft | 504 kts | 29° |
| 2026-05-01 11:14 | -13.34809 | -179.79709 | 32906 ft | 504 kts | 29° |
| 2026-05-01 11:15 | -13.28851 | -179.75916 | 32906 ft | 504 kts | 29° |
| 2026-05-01 11:15 | -13.22896 | -179.72128 | 32908 ft | 504 kts | 29° |
| 2026-05-01 11:16 | -13.16978 | -179.68365 | 32898 ft | 504 kts | 29° |
| 2026-05-01 11:16 | -13.11009 | -179.64572 | 32891 ft | 504 kts | 28° |
| 2026-05-01 11:17 | -13.05043 | -179.60783 | 32897 ft | 504 kts | 28° |
| 2026-05-01 11:17 | -12.99080 | -179.56999 | 32896 ft | 504 kts | 28° |
| 2026-05-01 11:18 | -12.93117 | -179.53216 | 32900 ft | 504 kts | 28° |
| 2026-05-01 11:18 | -12.87144 | -179.49429 | 32896 ft | 505 kts | 28° |
| 2026-05-01 11:19 | -12.81201 | -179.45664 | 32895 ft | 505 kts | 28° |
| 2026-05-01 11:19 | -12.75224 | -179.41879 | 32890 ft | 505 kts | 29° |
| 2026-05-01 11:20 | -12.69250 | -179.38098 | 32894 ft | 505 kts | 29° |
| 2026-05-01 11:20 | -12.63267 | -179.34313 | 32893 ft | 505 kts | 29° |
| 2026-05-01 11:21 | -12.57287 | -179.30532 | 32893 ft | 505 kts | 29° |
| 2026-05-01 11:21 | -12.51313 | -179.26758 | 32893 ft | 505 kts | 29° |
| 2026-05-01 11:22 | -12.45340 | -179.22986 | 32892 ft | 505 kts | 29° |
| 2026-05-01 11:22 | -12.39386 | -179.19228 | 32888 ft | 504 kts | 29° |
| 2026-05-01 11:23 | -12.33414 | -179.15461 | 32891 ft | 504 kts | 29° |
| 2026-05-01 11:23 | -12.27435 | -179.11691 | 32893 ft | 504 kts | 29° |
| 2026-05-01 11:24 | -12.21468 | -179.07931 | 32891 ft | 504 kts | 29° |
| 2026-05-01 11:25 | -12.12551 | -179.02316 | 32893 ft | 503 kts | 29° |
| 2026-05-01 11:25 | -12.03588 | -178.96676 | 32888 ft | 503 kts | 29° |
| 2026-05-01 11:26 | -11.94642 | -178.91052 | 32894 ft | 503 kts | 29° |
| 2026-05-01 11:27 | -11.88671 | -178.87300 | 32893 ft | 504 kts | 29° |
| 2026-05-01 11:27 | -11.82698 | -178.83549 | 32889 ft | 504 kts | 29° |
| 2026-05-01 11:28 | -11.76731 | -178.79804 | 32892 ft | 503 kts | 29° |
| 2026-05-01 11:28 | -11.70795 | -178.76080 | 32884 ft | 503 kts | 29° |
| 2026-05-01 11:29 | -11.61842 | -178.70468 | 32882 ft | 503 kts | 29° |
| 2026-05-01 11:30 | -11.52883 | -178.64855 | 32889 ft | 504 kts | 29° |
| 2026-05-01 11:30 | -11.46896 | -178.61107 | 32887 ft | 504 kts | 29° |
| 2026-05-01 11:31 | -11.40913 | -178.57363 | 32887 ft | 505 kts | 29° |
| 2026-05-01 11:31 | -11.34919 | -178.53614 | 32884 ft | 505 kts | 29° |
| 2026-05-01 11:32 | -11.28972 | -178.49897 | 32874 ft | 505 kts | 29° |
| 2026-05-01 11:32 | -11.22980 | -178.46153 | 32881 ft | 505 kts | 30° |
| 2026-05-01 11:33 | -11.16988 | -178.42411 | 32879 ft | 505 kts | 29° |
| 2026-05-01 11:33 | -11.10988 | -178.38665 | 32880 ft | 505 kts | 29° |
| 2026-05-01 11:34 | -11.04988 | -178.34922 | 32880 ft | 505 kts | 29° |
| 2026-05-01 11:34 | -10.98991 | -178.31182 | 32876 ft | 505 kts | 29° |
| 2026-05-01 11:35 | -10.93027 | -178.27465 | 32877 ft | 505 kts | 29° |
| 2026-05-01 11:35 | -10.87027 | -178.23727 | 32877 ft | 505 kts | 29° |
| 2026-05-01 11:36 | -10.81029 | -178.19993 | 32877 ft | 505 kts | 30° |
| 2026-05-01 11:36 | -10.75028 | -178.16257 | 32876 ft | 505 kts | 29° |
| 2026-05-01 11:37 | -10.69021 | -178.12520 | 32877 ft | 505 kts | 29° |
| 2026-05-01 11:37 | -10.63014 | -178.08785 | 32877 ft | 505 kts | 29° |
| 2026-05-01 11:38 | -10.57056 | -178.05082 | 32877 ft | 506 kts | 29° |
| 2026-05-01 11:38 | -10.51052 | -178.01352 | 32873 ft | 506 kts | 29° |
| 2026-05-01 11:39 | -10.45036 | -177.97616 | 32877 ft | 506 kts | 30° |
| 2026-05-01 11:39 | -10.39015 | -177.93879 | 32874 ft | 507 kts | 30° |
| 2026-05-01 11:40 | -10.32988 | -177.90140 | 32874 ft | 507 kts | 30° |
| 2026-05-01 11:40 | -10.26958 | -177.86401 | 32867 ft | 507 kts | 29° |
| 2026-05-01 11:41 | -10.20974 | -177.82691 | 32869 ft | 507 kts | 30° |
| 2026-05-01 11:41 | -10.14943 | -177.78955 | 32869 ft | 508 kts | 29° |
| 2026-05-01 11:42 | -10.08909 | -177.75217 | 32870 ft | 508 kts | 30° |
| 2026-05-01 11:42 | -10.02875 | -177.71481 | 32868 ft | 508 kts | 30° |
| 2026-05-01 11:43 | -9.96841 | -177.67749 | 32868 ft | 508 kts | 30° |
| 2026-05-01 11:43 | -9.90796 | -177.64016 | 32868 ft | 508 kts | 30° |
| 2026-05-01 11:44 | -9.81724 | -177.58415 | 32860 ft | 508 kts | 30° |
| 2026-05-01 11:44 | -9.75729 | -177.54714 | 32860 ft | 508 kts | 30° |
| 2026-05-01 11:45 | -9.69695 | -177.50991 | 32860 ft | 507 kts | 30° |
| 2026-05-01 11:45 | -9.63664 | -177.47270 | 32861 ft | 507 kts | 29° |
| 2026-05-01 11:46 | -9.57627 | -177.43549 | 32859 ft | 507 kts | 30° |
| 2026-05-01 11:46 | -9.51595 | -177.39831 | 32862 ft | 507 kts | 30° |
| 2026-05-01 11:47 | -9.45569 | -177.36119 | 32858 ft | 507 kts | 30° |
| 2026-05-01 11:47 | -9.40557 | -177.33033 | 32860 ft | 506 kts | 29° |
| 2026-05-01 11:48 | -9.33550 | -177.28720 | 32857 ft | 506 kts | 30° |
| 2026-05-01 11:48 | -9.28510 | -177.25619 | 32858 ft | 506 kts | 30° |
| 2026-05-01 11:49 | -9.22486 | -177.21914 | 32857 ft | 506 kts | 30° |
| 2026-05-01 11:49 | -9.16514 | -177.18242 | 32856 ft | 506 kts | 30° |
| 2026-05-01 11:50 | -9.10490 | -177.14540 | 32858 ft | 506 kts | 30° |
| 2026-05-01 11:50 | -9.04479 | -177.10848 | 32862 ft | 505 kts | 30° |
| 2026-05-01 11:51 | -8.98471 | -177.07159 | 32858 ft | 504 kts | 30° |
| 2026-05-01 11:51 | -8.92477 | -177.03479 | 32854 ft | 503 kts | 30° |
| 2026-05-01 11:52 | -8.86498 | -176.99811 | 32857 ft | 502 kts | 30° |
| 2026-05-01 11:52 | -8.80560 | -176.96168 | 32858 ft | 502 kts | 30° |
| 2026-05-01 11:53 | -8.74598 | -176.92513 | 32853 ft | 502 kts | 30° |
| 2026-05-01 11:53 | -8.68614 | -176.88846 | 32859 ft | 503 kts | 30° |
| 2026-05-01 11:54 | -8.62619 | -176.85172 | 32858 ft | 504 kts | 29° |
| 2026-05-01 11:54 | -8.56622 | -176.81500 | 32859 ft | 505 kts | 31° |
| 2026-05-01 11:55 | -8.50608 | -176.77819 | 32857 ft | 505 kts | 30° |
| 2026-05-01 11:55 | -8.44590 | -176.74136 | 32855 ft | 505 kts | 31° |
| 2026-05-01 11:56 | -8.38573 | -176.70454 | 32859 ft | 505 kts | 30° |
| 2026-05-01 11:56 | -8.32565 | -176.66781 | 32853 ft | 505 kts | 29° |
| 2026-05-01 11:57 | -8.26607 | -176.63138 | 32859 ft | 503 kts | 30° |
| 2026-05-01 11:57 | -8.20627 | -176.59484 | 32848 ft | 501 kts | 29° |
| 2026-05-01 11:58 | -8.14668 | -176.55844 | 32856 ft | 500 kts | 30° |
| 2026-05-01 11:59 | -8.05732 | -176.50389 | 32859 ft | 501 kts | 31° |
| 2026-05-01 11:59 | -7.99762 | -176.46745 | 32857 ft | 501 kts | 30° |
| 2026-05-01 12:00 | -7.90798 | -176.41276 | 32857 ft | 503 kts | 30° |
| 2026-05-01 12:01 | -7.81841 | -176.35815 | 32855 ft | 503 kts | 30° |
| 2026-05-01 12:01 | -7.75803 | -176.32135 | 32854 ft | 504 kts | 30° |
| 2026-05-01 12:02 | -7.69841 | -176.28502 | 32850 ft | 504 kts | 30° |
| 2026-05-01 12:02 | -7.63841 | -176.24848 | 32852 ft | 504 kts | 31° |
| 2026-05-01 12:03 | -7.57847 | -176.21198 | 32853 ft | 503 kts | 31° |
| 2026-05-01 12:03 | -7.51847 | -176.17546 | 32851 ft | 504 kts | 30° |
| 2026-05-01 12:04 | -7.45835 | -176.13887 | 32852 ft | 504 kts | 30° |
| 2026-05-01 12:04 | -7.39822 | -176.10230 | 32854 ft | 505 kts | 30° |
| 2026-05-01 12:05 | -7.33834 | -176.06589 | 32852 ft | 506 kts | 30° |
| 2026-05-01 12:05 | -7.24789 | -176.01091 | 32851 ft | 506 kts | 30° |
| 2026-05-01 12:06 | -7.18757 | -175.97426 | 32851 ft | 506 kts | 30° |
| 2026-05-01 12:06 | -7.12721 | -175.93759 | 32851 ft | 506 kts | 30° |
| 2026-05-01 12:07 | -7.06695 | -175.90100 | 33047 ft | 505 kts | 30° |
| 2026-05-01 12:07 | -7.03686 | -175.88273 | 33400 ft | 504 kts | 30° |
| 2026-05-01 12:07 | -7.00691 | -175.86455 | 33768 ft | 503 kts | 30° |
| 2026-05-01 12:08 | -6.97687 | -175.84632 | 33990 ft | 504 kts | 30° |
| 2026-05-01 12:08 | -6.94691 | -175.82814 | 34309 ft | 503 kts | 30° |
| 2026-05-01 12:08 | -6.91691 | -175.80994 | 34549 ft | 503 kts | 30° |
| 2026-05-01 12:08 | -6.88696 | -175.79177 | 34781 ft | 502 kts | 30° |
| 2026-05-01 12:09 | -6.82730 | -175.75560 | 34842 ft | 504 kts | 30° |
| 2026-05-01 12:09 | -6.76741 | -175.71928 | 34839 ft | 499 kts | 31° |
| 2026-05-01 12:10 | -6.67856 | -175.66543 | 34843 ft | 494 kts | 30° |
| 2026-05-01 12:11 | -6.59016 | -175.61188 | 34850 ft | 494 kts | 30° |
| 2026-05-01 12:11 | -6.53150 | -175.57635 | 34848 ft | 496 kts | 30° |
| 2026-05-01 12:12 | -6.47230 | -175.54051 | 34847 ft | 498 kts | 30° |
| 2026-05-01 12:12 | -6.41278 | -175.50449 | 34849 ft | 500 kts | 31° |
| 2026-05-01 12:13 | -6.35309 | -175.46837 | 34846 ft | 501 kts | 31° |
| 2026-05-01 12:13 | -6.29330 | -175.43219 | 34844 ft | 501 kts | 31° |
| 2026-05-01 12:14 | -6.23355 | -175.39605 | 34844 ft | 501 kts | 31° |
| 2026-05-01 12:14 | -6.17384 | -175.35995 | 34839 ft | 500 kts | 31° |
| 2026-05-01 12:15 | -6.11423 | -175.32392 | 34842 ft | 500 kts | 31° |
| 2026-05-01 12:15 | -6.05470 | -175.28795 | 34842 ft | 499 kts | 31° |
| 2026-05-01 12:16 | -5.99560 | -175.25224 | 34841 ft | 498 kts | 31° |
| 2026-05-01 12:16 | -5.93608 | -175.21630 | 34841 ft | 498 kts | 31° |
| 2026-05-01 12:17 | -5.87660 | -175.18038 | 34839 ft | 498 kts | 31° |
| 2026-05-01 12:17 | -5.81716 | -175.14450 | 34837 ft | 499 kts | 31° |
| 2026-05-01 12:18 | -5.75759 | -175.10854 | 34838 ft | 499 kts | 31° |
| 2026-05-01 12:18 | -5.69836 | -175.07280 | 34837 ft | 499 kts | 31° |
| 2026-05-01 12:19 | -5.63880 | -175.03688 | 34839 ft | 500 kts | 31° |
| 2026-05-01 12:19 | -5.57919 | -175.00093 | 34836 ft | 500 kts | 31° |
| 2026-05-01 12:20 | -5.51958 | -174.96498 | 34837 ft | 500 kts | 31° |
| 2026-05-01 12:20 | -5.45990 | -174.92901 | 34835 ft | 500 kts | 31° |
| 2026-05-01 12:21 | -5.40027 | -174.89306 | 34835 ft | 499 kts | 31° |
| 2026-05-01 12:21 | -5.34108 | -174.85740 | 34835 ft | 499 kts | 31° |
| 2026-05-01 12:22 | -5.28148 | -174.82150 | 34836 ft | 499 kts | 32° |
| 2026-05-01 12:22 | -5.22192 | -174.78563 | 34832 ft | 499 kts | 31° |
| 2026-05-01 12:23 | -5.16237 | -174.74976 | 34834 ft | 498 kts | 31° |
| 2026-05-01 12:23 | -5.10288 | -174.71395 | 34833 ft | 498 kts | 31° |
| 2026-05-01 12:24 | -5.04343 | -174.67815 | 34835 ft | 498 kts | 31° |
| 2026-05-01 12:24 | -4.98405 | -174.64236 | 34829 ft | 498 kts | 31° |
| 2026-05-01 12:25 | -4.89554 | -174.58753 | 34835 ft | 499 kts | 32° |
| 2026-05-01 12:26 | -4.83681 | -174.55095 | 34829 ft | 499 kts | 32° |
| 2026-05-01 12:26 | -4.74816 | -174.49592 | 34831 ft | 500 kts | 32° |
| 2026-05-01 12:27 | -4.65933 | -174.44090 | 34828 ft | 500 kts | 32° |
| 2026-05-01 12:28 | -4.57067 | -174.38600 | 34831 ft | 499 kts | 32° |
| 2026-05-01 12:29 | -4.48200 | -174.33110 | 34829 ft | 498 kts | 32° |
| 2026-05-01 12:29 | -4.39394 | -174.27658 | 34831 ft | 497 kts | 32° |
| 2026-05-01 12:30 | -4.30563 | -174.22194 | 34829 ft | 497 kts | 32° |
| 2026-05-01 12:31 | -4.24684 | -174.18556 | 34829 ft | 497 kts | 32° |
| 2026-05-01 12:31 | -4.18810 | -174.14922 | 34826 ft | 497 kts | 32° |
| 2026-05-01 12:32 | -4.12924 | -174.11282 | 34826 ft | 497 kts | 32° |
| 2026-05-01 12:32 | -4.04079 | -174.05813 | 34831 ft | 498 kts | 32° |
| 2026-05-01 12:33 | -3.99178 | -174.02783 | 34831 ft | 498 kts | 32° |
| 2026-05-01 12:33 | -3.92303 | -173.98534 | 34832 ft | 499 kts | 32° |